»·PEaware :: N415CS KSAN-KPSP

N415CS :: KSAN-KPSP

FLIGHT INFORMATION

Flight Status: Arrived
Operator: Privately registered:
United States
More flights under this callsign
Pilot: Kyle A. (14988)
Aircraft: CESSNA 182 SKYLANE
(C182)
More flights by this aircraft type
Origin: KSAN San Diego Intl-Lindbergh
United States
Destination: KPSP Palm Springs Intl
United States
More flights between these airports :: More routes between these airports
Route: +JLI V208 TRM
File this flight plan on PilotEdge
Remarks:
Altitude:
(Current/Filed)
9,000ft
Speed:
(Current/Filed)
135kts
Departed: 16-Nov-17 12:20 PM
Arrived: 16-Nov-17 01:06 PM
Distance/Time
Traveled:
74nm/0:46
Distance/Time
To Go:
Arrived

Flight Plot

Page will automatically refresh every two minutes.


Map Options




Map Legend


Flown Route
Filed Route
Departure Airport
Arrival Airport
Navaid (VOR, NDB)
Fix

Horizontal Profiles

Position Reports

Time Latitude Longitude Heading Altitude Ground
Speed
16-Nov-17 12:02 32.734576 -117.179499 14 18ft 0kts
16-Nov-17 12:03 32.734579 -117.179498 14 18ft 0kts
16-Nov-17 12:04 32.734582 -117.179497 14 18ft 0kts
16-Nov-17 12:05 32.734585 -117.179496 14 18ft 0kts
16-Nov-17 12:06 32.734587 -117.179495 14 18ft 0kts
16-Nov-17 12:07 32.734588 -117.179495 14 18ft 0kts
16-Nov-17 12:08 32.734589 -117.179495 14 18ft 0kts
16-Nov-17 12:09 32.734589 -117.179495 14 18ft 0kts
16-Nov-17 12:10 32.734590 -117.179494 14 18ft 0kts
16-Nov-17 12:11 32.734592 -117.179494 14 18ft 0kts
16-Nov-17 12:12 32.734594 -117.179493 14 18ft 0kts
16-Nov-17 12:13 32.734595 -117.179493 14 18ft 0kts
16-Nov-17 12:14 32.734597 -117.179492 14 18ft 0kts
16-Nov-17 12:15 32.734599 -117.179491 14 18ft 0kts
16-Nov-17 12:16 32.734602 -117.179491 14 18ft 0kts
16-Nov-17 12:17 32.734604 -117.179490 14 18ft 0kts
16-Nov-17 12:18 32.734606 -117.179490 14 18ft 0kts
16-Nov-17 12:19 32.734524 -117.179404 194 18ft 4kts
16-Nov-17 12:20 32.734513 -117.179407 195 18ft 0kts
16-Nov-17 12:21 32.733497 -117.179586 187 18ft 16kts
16-Nov-17 12:22 32.731363 -117.175897 116 18ft 16kts
16-Nov-17 12:23 32.730941 -117.175467 149 18ft 0kts
16-Nov-17 12:24 32.730939 -117.175466 149 18ft 0kts
16-Nov-17 12:25 32.732747 -117.186312 288 250ft 92kts
16-Nov-17 12:26 32.749089 -117.206109 322 1521ft 78kts
16-Nov-17 12:27 32.769560 -117.223929 322 2002ft 120kts
16-Nov-17 12:28 32.795337 -117.247043 321 2958ft 113kts
16-Nov-17 12:29 32.819279 -117.268405 322 4052ft 99kts
16-Nov-17 12:30 32.839254 -117.285878 322 5103ft 90kts
16-Nov-17 12:31 32.859182 -117.284436 40 5971ft 106kts
16-Nov-17 12:32 32.880352 -117.250989 66 6425ft 127kts
16-Nov-17 12:33 32.894255 -117.213269 62 7508ft 113kts
16-Nov-17 12:34 32.904688 -117.186786 62 8343ft 104kts
16-Nov-17 12:35 32.920596 -117.146521 63 8982ft 141kts
16-Nov-17 12:36 32.935985 -117.107433 63 8980ft 165kts
16-Nov-17 12:37 32.955155 -117.058834 63 8987ft 157kts
16-Nov-17 12:38 32.976833 -117.003846 63 9005ft 160kts
16-Nov-17 12:39 32.992465 -116.964121 63 8997ft 156kts
16-Nov-17 12:40 33.010792 -116.917504 63 9000ft 155kts
16-Nov-17 12:41 33.029168 -116.870696 63 9008ft 159kts
16-Nov-17 12:42 33.048151 -116.822264 63 9011ft 166kts
16-Nov-17 12:43 33.067420 -116.773021 63 8992ft 160kts
16-Nov-17 12:44 33.085955 -116.725578 64 8995ft 155kts
16-Nov-17 12:45 33.104361 -116.678408 64 9009ft 163kts
16-Nov-17 12:46 33.123348 -116.629679 64 8992ft 158kts
16-Nov-17 12:47 33.143411 -116.582572 42 8993ft 164kts
16-Nov-17 12:48 33.179932 -116.551912 34 8983ft 156kts
16-Nov-17 12:49 33.215120 -116.521110 34 8996ft 163kts
16-Nov-17 12:50 33.251898 -116.489080 34 8979ft 165kts
16-Nov-17 12:51 33.288451 -116.457257 34 8961ft 161kts
16-Nov-17 12:52 33.324239 -116.426093 34 8993ft 159kts
16-Nov-17 12:53 33.359769 -116.395140 34 8991ft 159kts
16-Nov-17 12:54 33.395731 -116.363754 34 8991ft 164kts
16-Nov-17 12:55 33.431936 -116.332135 34 8968ft 155kts
16-Nov-17 12:56 33.465328 -116.302926 35 8985ft 163kts
16-Nov-17 12:57 33.501746 -116.271014 35 8964ft 159kts
16-Nov-17 12:58 33.537557 -116.239622 35 8970ft 163kts
16-Nov-17 12:59 33.574064 -116.207585 35 8962ft 164kts
16-Nov-17 13:00 33.610569 -116.175690 30 8951ft 161kts
16-Nov-17 13:01 33.646282 -116.191441 302 8956ft 146kts
16-Nov-17 13:02 33.670534 -116.232897 303 8339ft 161kts
16-Nov-17 13:03 33.695451 -116.275562 304 7184ft 152kts
16-Nov-17 13:04 33.717771 -116.307233 347 6048ft 119kts
16-Nov-17 13:05 33.746373 -116.325526 293 4852ft 123kts
16-Nov-17 13:06 33.759742 -116.366748 287 3666ft 136kts
16-Nov-17 13:07 33.768375 -116.409023 285 2721ft 126kts
16-Nov-17 13:08 33.777898 -116.445672 290 1924ft 111kts
16-Nov-17 13:09 33.793043 -116.473075 313 1295ft 89kts
16-Nov-17 13:10 33.811194 -116.491236 323 863ft 86kts
16-Nov-17 13:11 33.826438 -116.504807 320 480ft 36kts
16-Nov-17 13:12 33.828865 -116.508385 251 480ft 0kts
16-Nov-17 13:13 33.828864 -116.508388 251 480ft 0kts
16-Nov-17 13:14 33.827470 -116.509218 226 480ft 6kts
16-Nov-17 13:15 33.826933 -116.509251 151 480ft 1kts
16-Nov-17 13:16 33.826548 -116.509525 66 480ft 2kts
16-Nov-17 13:17 33.826537 -116.509594 85 480ft 0kts
16-Nov-17 13:18 33.826537 -116.509594 85 480ft 0kts
16-Nov-17 13:19 33.826537 -116.509594 85 480ft 0kts
16-Nov-17 13:20 33.826537 -116.509594 85 480ft 0kts
16-Nov-17 13:21 33.826537 -116.509594 85 480ft 0kts
16-Nov-17 13:22 33.826537 -116.509594 85 480ft 0kts
16-Nov-17 13:23 33.826537 -116.509594 85 480ft 0kts
16-Nov-17 13:24 33.826537 -116.509594 85 480ft 0kts
16-Nov-17 13:25 33.826537 -116.509594 85 480ft 0kts

Navigation Log

Ident Type
1. KSAN Airport
2. JLI Navaid
3. WARNE Fix
4. TRM Navaid
5. KPSP Airport